メインページ
METAR-TAF:

METAR-TAF

空港 :

桂林両江国際空港

桂林, 中華人民共和国

緯度: 25-20N, 経度: 110-18E, 海抜: 166m

現時点の気象観測

当レポートは30分前の14:00(UTC)に作成
変向風 8kt
気温 28°C
湿度 79%
気圧 1004 hPa
視程10km以上
高度3300ftの雲はほとんどない, 積乱雲.
高度5000ftの雲は散在している

METAR: ZGKL 201400Z VRB04MPS 9999 FEW033CB SCT050 28/24 Q1004 NOSIG

時間: 22:30 (14:30 UTC)

予報

当レポートは5時間20分前の09:10(UTC)に作成
予報は20日の 12時(UTC)から 21日の 12時(UTC)まで有効
の風 6kt
視程10km以上
高度5000ftの雲は散在している
21日の 07時(UTC)から 21日の 12時(UTC)まで一時的に
高度3000ftの雲はほとんどない, 積乱雲.
高度5000ftの雲は散在している

TAF: ZGKL 200910Z 2012/2112 18003MPS 9999 SCT050 TX36/2108Z TN25/2021Z TEMPO 2107/2112 FEW030CB SCT050

4,000以上の空港の気象観測と天気予報(METAR報とTAF報)

利用可能な観測所は地図上に黄色い丸と赤い丸で示す。

丸の上にカーソルを重ねると観測所名を参照できる。

次にクリックすると気象観測と天気予報を参照できる。

マップの切り替え:黒色「×」印の緑ボタンをクリックして拡大、「-」印の緑ボタンをクリックして縮小、緑色の三角印をクリックして隣りの地図に切り替え


METAR-TAF: